Hagood, South Carolina
Current Conditions -  °F | °C
As of 6:58 AM on Thursday 23 Oct 2014 (Local Time) from KSSC Reporting Station
Clear Clear  
Wind Chill: 41°   Ceiling: Unl
Heat Index: 46°   Visibility: 10mi
Dew Point: 41°   Wind: 10mph
Humidity: 84%   Direction: 310°NW
Pressure: 30.06"   Gusts: NA
Location:  34.1106°N, 80.4967°W
Report Text: KSSC 231058Z AUTO 31009KT 10SM CLR 08/05 A3006 RMK AO2 SLP181 T00760051 $
Loading
Personal Weather Stations






























Interactive Weather Map
Tropical Storm Tracking
New forecast layout! Learn more

10-Day Weather Forecast

Advertisements
Track Severe Weather on mobile